createdAt,value
2022-12-16T00:01:08.155Z,19.25
2022-12-16T00:03:40.458Z,18.00
2022-12-16T00:06:10.904Z,13.25
2022-12-16T00:08:43.127Z,21.25
2022-12-16T00:11:14.476Z,18.50
2022-12-16T00:13:48.541Z,20.25
2022-12-16T00:16:22.100Z,17.00
2022-12-16T00:18:52.616Z,17.25
2022-12-16T00:21:27.694Z,11.50
2022-12-16T00:23:58.329Z,14.25
2022-12-16T00:26:28.918Z,22.25
2022-12-16T00:28:59.500Z,18.75
2022-12-16T00:31:30.065Z,27.75
2022-12-16T00:34:00.844Z,31.25
2022-12-16T00:36:31.149Z,35.00
2022-12-16T00:39:01.676Z,36.00
2022-12-16T00:41:32.333Z,32.75
2022-12-16T00:44:02.815Z,39.25
2022-12-16T00:46:33.647Z,31.25
2022-12-16T00:49:24.842Z,35.25
2022-12-16T00:51:55.984Z,36.75
2022-12-16T00:54:26.759Z,36.25
2022-12-16T00:56:57.536Z,36.75
2022-12-16T00:59:27.781Z,32.25
2022-12-16T01:01:59.319Z,32.00
2022-12-16T01:04:30.919Z,29.25
2022-12-16T01:07:01.447Z,28.25
2022-12-16T01:09:32.144Z,19.50
2022-12-16T01:12:02.547Z,26.25
2022-12-16T01:14:33.342Z,30.75
2022-12-16T01:17:03.813Z,33.50
2022-12-16T01:19:35.012Z,33.25
2022-12-16T01:22:05.798Z,33.75
2022-12-16T01:24:36.094Z,31.50
2022-12-16T01:27:06.423Z,27.00
2022-12-16T01:29:36.775Z,25.00
2022-12-16T01:32:07.335Z,21.25
2022-12-16T01:34:39.709Z,23.75
2022-12-16T01:37:16.210Z,16.50
2022-12-16T01:39:47.264Z,20.00
2022-12-16T01:42:20.366Z,17.25
2022-12-16T01:44:55.018Z,17.00
2022-12-16T01:50:19.580Z,20.50
2022-12-16T01:52:52.720Z,21.00
2022-12-16T01:55:26.126Z,21.25
2022-12-16T01:57:59.332Z,21.75
2022-12-16T02:00:30.944Z,23.00
2022-12-16T02:03:01.757Z,20.00
2022-12-16T02:05:37.627Z,21.25
2022-12-16T02:08:10.904Z,18.25
2022-12-16T02:10:46.681Z,23.25
2022-12-16T02:13:23.323Z,18.75
2022-12-16T02:15:59.434Z,17.00
2022-12-16T02:18:51.714Z,17.50
2022-12-16T02:21:49.971Z,19.25
2022-12-16T02:24:48.854Z,19.00
2022-12-16T02:27:38.390Z,17.25
2022-12-16T02:30:26.795Z,21.25
2022-12-16T02:33:20.432Z,22.75
2022-12-16T02:39:01.251Z,21.00
2022-12-16T02:41:52.604Z,26.25
2022-12-16T02:44:25.802Z,25.00
2022-12-16T02:46:56.857Z,26.75
2022-12-16T02:49:30.342Z,19.00
2022-12-16T02:52:02.277Z,24.75
2022-12-16T02:54:32.650Z,23.00
2022-12-16T02:57:34.712Z,28.00
2022-12-16T03:00:07.896Z,20.50
2022-12-16T03:02:42.701Z,21.25
2022-12-16T03:05:28.068Z,22.25
2022-12-16T03:08:04.124Z,16.50
2022-12-16T03:10:39.058Z,20.25
2022-12-16T03:13:13.136Z,17.75
2022-12-16T03:15:46.643Z,17.00
2022-12-16T03:18:18.558Z,18.25
2022-12-16T03:20:57.878Z,20.25
2022-12-16T03:23:52.478Z,22.00
2022-12-16T03:26:43.322Z,22.25
2022-12-16T03:29:21.667Z,20.50
2022-12-16T03:31:57.792Z,20.00
2022-12-16T03:34:33.807Z,23.00
2022-12-16T03:37:07.879Z,17.75
2022-12-16T03:39:44.168Z,17.25
2022-12-16T03:42:16.485Z,17.25
2022-12-16T03:44:48.084Z,14.00
2022-12-16T03:47:23.625Z,17.75
2022-12-16T03:49:50.655Z,18.00
2022-12-16T03:52:21.342Z,18.50
2022-12-16T03:54:51.724Z,20.75
2022-12-16T03:57:21.988Z,16.50
2022-12-16T03:59:52.366Z,20.00
2022-12-16T04:02:23.345Z,18.75
2022-12-16T04:04:53.847Z,15.50
2022-12-16T04:07:24.236Z,20.00
2022-12-16T04:09:54.659Z,16.25
2022-12-16T04:12:25.053Z,18.00
2022-12-16T04:14:55.483Z,16.00
2022-12-16T04:17:25.742Z,17.00
2022-12-16T04:19:56.033Z,19.25
2022-12-16T04:22:35.248Z,13.00
2022-12-16T04:25:08.415Z,12.75
2022-12-16T04:27:38.781Z,16.50
2022-12-16T04:30:09.968Z,13.00
2022-12-16T04:32:42.011Z,15.75
2022-12-16T04:35:12.359Z,17.75
2022-12-16T04:37:42.585Z,16.00
2022-12-16T04:40:13.173Z,18.25
2022-12-16T04:42:43.667Z,20.00
2022-12-16T04:45:14.022Z,23.00
2022-12-16T04:47:44.362Z,23.00
2022-12-16T04:50:14.806Z,27.00
2022-12-16T04:52:45.264Z,24.25
2022-12-16T04:55:15.702Z,27.75
2022-12-16T04:57:54.519Z,28.75
2022-12-16T05:00:25.313Z,27.25
2022-12-16T05:02:56.793Z,29.00
2022-12-16T05:05:27.196Z,28.25
2022-12-16T05:07:58.214Z,30.25
2022-12-16T05:10:28.657Z,29.25
2022-12-16T05:12:59.069Z,29.25
2022-12-16T05:15:29.526Z,31.00
2022-12-16T05:18:02.071Z,25.75
2022-12-16T05:20:32.748Z,25.00
2022-12-16T05:23:03.103Z,26.25
2022-12-16T05:25:33.556Z,25.00
2022-12-16T05:28:05.425Z,45.00
2022-12-16T05:30:36.294Z,27.25
2022-12-16T05:33:08.282Z,30.00
2022-12-16T05:35:39.328Z,28.75
2022-12-16T05:38:09.575Z,24.25
2022-12-16T05:40:40.254Z,21.50
2022-12-16T05:43:16.531Z,28.00
2022-12-16T05:45:43.645Z,17.25
2022-12-16T05:48:26.514Z,18.75
2022-12-16T05:50:59.256Z,8.25
2022-12-16T05:53:33.107Z,12.25
2022-12-16T05:56:08.309Z,18.75
2022-12-16T05:58:41.370Z,17.25
2022-12-16T06:01:14.210Z,14.00
2022-12-16T06:03:46.250Z,19.25
2022-12-16T06:06:16.838Z,22.75
2022-12-16T06:08:47.260Z,16.50
2022-12-16T06:11:17.753Z,19.50
2022-12-16T06:13:48.426Z,20.25
2022-12-16T06:16:18.957Z,14.75
2022-12-16T06:18:49.435Z,16.25
2022-12-16T06:21:20.064Z,16.50
2022-12-16T06:23:50.629Z,13.00
2022-12-16T06:26:22.559Z,20.25
2022-12-16T06:28:53.563Z,20.00
2022-12-16T06:31:24.559Z,12.25
2022-12-16T06:33:55.224Z,17.50
2022-12-16T06:36:26.845Z,18.75
2022-12-16T06:38:57.116Z,17.25
2022-12-16T06:41:27.566Z,23.00
2022-12-16T06:43:58.044Z,19.50
2022-12-16T06:46:28.656Z,0.00
2022-12-16T06:48:59.382Z,11.50
2022-12-16T06:51:30.504Z,18.50
2022-12-16T06:54:00.785Z,20.75
2022-12-16T06:56:31.331Z,20.25
2022-12-16T06:59:01.583Z,18.75
2022-12-16T07:01:32.225Z,18.00
2022-12-16T07:04:02.916Z,16.75
2022-12-16T07:06:33.791Z,20.75
2022-12-16T07:09:04.925Z,21.00
2022-12-16T07:11:35.368Z,13.75
2022-12-16T07:14:05.855Z,16.75
2022-12-16T07:16:36.880Z,18.25
